sensor_id;sensor_type;location;lat;lon;timestamp;P1;durP1;ratioP1;P2;durP2;ratioP2
15816;SDS011;8009;50.070;8.232;2023-05-10T00:02:11;14.83;;;14.30;;
15816;SDS011;8009;50.070;8.232;2023-05-10T00:04:40;12.25;;;11.82;;
15816;SDS011;8009;50.070;8.232;2023-05-10T00:07:08;13.67;;;13.17;;
15816;SDS011;8009;50.070;8.232;2023-05-10T00:09:36;12.93;;;12.43;;
15816;SDS011;8009;50.070;8.232;2023-05-10T00:12:07;15.37;;;14.77;;
15816;SDS011;8009;50.070;8.232;2023-05-10T00:14:36;13.53;;;13.03;;
15816;SDS011;8009;50.070;8.232;2023-05-10T00:17:04;13.20;;;12.70;;
15816;SDS011;8009;50.070;8.232;2023-05-10T00:19:32;12.50;;;12.00;;
15816;SDS011;8009;50.070;8.232;2023-05-10T00:22:00;13.80;;;13.30;;
15816;SDS011;8009;50.070;8.232;2023-05-10T00:24:29;14.13;;;13.63;;
15816;SDS011;8009;50.070;8.232;2023-05-10T00:26:57;17.27;;;16.63;;
15816;SDS011;8009;50.070;8.232;2023-05-10T00:29:28;16.13;;;15.53;;
15816;SDS011;8009;50.070;8.232;2023-05-10T00:31:56;15.30;;;14.70;;
15816;SDS011;8009;50.070;8.232;2023-05-10T00:34:25;16.20;;;15.60;;
15816;SDS011;8009;50.070;8.232;2023-05-10T00:36:53;14.07;;;13.57;;
15816;SDS011;8009;50.070;8.232;2023-05-10T00:39:21;14.00;;;13.50;;
15816;SDS011;8009;50.070;8.232;2023-05-10T00:41:51;14.93;;;14.40;;
15816;SDS011;8009;50.070;8.232;2023-05-10T00:44:19;17.67;;;17.00;;
15816;SDS011;8009;50.070;8.232;2023-05-10T00:46:50;15.87;;;15.27;;
15816;SDS011;8009;50.070;8.232;2023-05-10T00:49:19;15.13;;;14.53;;
15816;SDS011;8009;50.070;8.232;2023-05-10T00:51:48;14.00;;;13.50;;
15816;SDS011;8009;50.070;8.232;2023-05-10T00:54:16;14.90;;;14.33;;
15816;SDS011;8009;50.070;8.232;2023-05-10T00:56:45;16.03;;;15.43;;
15816;SDS011;8009;50.070;8.232;2023-05-10T00:59:14;16.57;;;15.97;;
15816;SDS011;8009;50.070;8.232;2023-05-10T01:01:42;14.97;;;14.40;;
15816;SDS011;8009;50.070;8.232;2023-05-10T01:04:14;16.27;;;15.67;;
15816;SDS011;8009;50.070;8.232;2023-05-10T01:06:45;15.23;;;14.67;;
15816;SDS011;8009;50.070;8.232;2023-05-10T01:09:13;15.23;;;14.63;;
15816;SDS011;8009;50.070;8.232;2023-05-10T01:11:42;16.57;;;15.97;;
15816;SDS011;8009;50.070;8.232;2023-05-10T01:14:10;15.50;;;14.90;;
15816;SDS011;8009;50.070;8.232;2023-05-10T01:16:39;16.60;;;16.00;;
15816;SDS011;8009;50.070;8.232;2023-05-10T01:19:10;17.87;;;17.17;;
15816;SDS011;8009;50.070;8.232;2023-05-10T01:21:47;16.83;;;16.23;;
15816;SDS011;8009;50.070;8.232;2023-05-10T01:24:29;14.83;;;14.30;;
15816;SDS011;8009;50.070;8.232;2023-05-10T01:33:27;17.67;;;16.97;;
15816;SDS011;8009;50.070;8.232;2023-05-10T01:36:03;17.37;;;16.77;;
15816;SDS011;8009;50.070;8.232;2023-05-10T01:38:38;16.93;;;16.33;;
15816;SDS011;8009;50.070;8.232;2023-05-10T01:44:12;17.03;;;16.40;;
15816;SDS011;8009;50.070;8.232;2023-05-10T01:46:47;17.47;;;16.77;;
15816;SDS011;8009;50.070;8.232;2023-05-10T01:49:24;17.50;;;16.87;;
15816;SDS011;8009;50.070;8.232;2023-05-10T01:51:55;17.03;;;16.43;;
15816;SDS011;8009;50.070;8.232;2023-05-10T01:54:33;14.63;;;14.13;;
15816;SDS011;8009;50.070;8.232;2023-05-10T01:57:06;17.27;;;16.63;;
15816;SDS011;8009;50.070;8.232;2023-05-10T01:59:37;19.17;;;18.47;;
15816;SDS011;8009;50.070;8.232;2023-05-10T02:02:08;18.03;;;17.33;;
15816;SDS011;8009;50.070;8.232;2023-05-10T02:04:41;17.23;;;16.60;;
15816;SDS011;8009;50.070;8.232;2023-05-10T02:07:10;16.33;;;15.73;;
15816;SDS011;8009;50.070;8.232;2023-05-10T02:09:39;15.37;;;14.77;;
15816;SDS011;8009;50.070;8.232;2023-05-10T02:12:12;17.10;;;16.50;;
15816;SDS011;8009;50.070;8.232;2023-05-10T02:14:41;16.27;;;15.57;;
15816;SDS011;8009;50.070;8.232;2023-05-10T02:17:11;15.23;;;14.63;;
15816;SDS011;8009;50.070;8.232;2023-05-10T02:19:44;14.70;;;14.20;;
15816;SDS011;8009;50.070;8.232;2023-05-10T02:22:14;16.53;;;15.93;;
15816;SDS011;8009;50.070;8.232;2023-05-10T02:24:44;18.43;;;17.73;;
15816;SDS011;8009;50.070;8.232;2023-05-10T02:27:14;14.03;;;13.53;;
15816;SDS011;8009;50.070;8.232;2023-05-10T02:29:45;14.77;;;14.23;;
15816;SDS011;8009;50.070;8.232;2023-05-10T02:32:14;16.23;;;15.63;;
15816;SDS011;8009;50.070;8.232;2023-05-10T02:34:46;14.93;;;14.33;;
15816;SDS011;8009;50.070;8.232;2023-05-10T02:37:25;15.30;;;14.70;;
15816;SDS011;8009;50.070;8.232;2023-05-10T02:39:55;15.60;;;15.00;;
15816;SDS011;8009;50.070;8.232;2023-05-10T02:42:25;14.47;;;13.90;;
15816;SDS011;8009;50.070;8.232;2023-05-10T02:44:56;16.93;;;16.33;;
15816;SDS011;8009;50.070;8.232;2023-05-10T02:47:28;14.73;;;14.13;;
15816;SDS011;8009;50.070;8.232;2023-05-10T02:50:05;14.47;;;13.97;;
15816;SDS011;8009;50.070;8.232;2023-05-10T02:52:38;17.03;;;16.43;;
15816;SDS011;8009;50.070;8.232;2023-05-10T02:55:09;13.97;;;13.47;;
15816;SDS011;8009;50.070;8.232;2023-05-10T02:57:52;14.73;;;14.20;;
15816;SDS011;8009;50.070;8.232;2023-05-10T03:00:50;14.30;;;13.80;;
15816;SDS011;8009;50.070;8.232;2023-05-10T03:03:19;16.50;;;15.90;;
15816;SDS011;8009;50.070;8.232;2023-05-10T03:05:50;15.57;;;14.97;;
15816;SDS011;8009;50.070;8.232;2023-05-10T03:08:20;15.23;;;14.63;;
15816;SDS011;8009;50.070;8.232;2023-05-10T03:10:53;15.27;;;14.67;;
15816;SDS011;8009;50.070;8.232;2023-05-10T03:13:34;16.33;;;15.73;;
15816;SDS011;8009;50.070;8.232;2023-05-10T03:16:12;16.03;;;15.43;;
15816;SDS011;8009;50.070;8.232;2023-05-10T03:18:44;13.00;;;12.50;;
15816;SDS011;8009;50.070;8.232;2023-05-10T03:21:21;16.23;;;15.63;;
15816;SDS011;8009;50.070;8.232;2023-05-10T03:23:54;15.20;;;14.60;;
15816;SDS011;8009;50.070;8.232;2023-05-10T03:26:35;16.83;;;16.20;;
15816;SDS011;8009;50.070;8.232;2023-05-10T03:29:05;16.43;;;15.83;;
15816;SDS011;8009;50.070;8.232;2023-05-10T03:31:35;19.03;;;18.33;;
15816;SDS011;8009;50.070;8.232;2023-05-10T03:34:03;17.57;;;16.90;;
15816;SDS011;8009;50.070;8.232;2023-05-10T03:36:34;14.07;;;13.57;;
15816;SDS011;8009;50.070;8.232;2023-05-10T03:45:01;17.10;;;16.50;;
15816;SDS011;8009;50.070;8.232;2023-05-10T03:47:29;19.13;;;18.43;;
15816;SDS011;8009;50.070;8.232;2023-05-10T03:49:57;18.13;;;17.43;;
15816;SDS011;8009;50.070;8.232;2023-05-10T03:52:29;15.33;;;14.73;;
15816;SDS011;8009;50.070;8.232;2023-05-10T03:54:57;14.82;;;14.23;;
15816;SDS011;8009;50.070;8.232;2023-05-10T03:57:27;16.10;;;15.50;;
15816;SDS011;8009;50.070;8.232;2023-05-10T03:59:56;15.97;;;15.37;;
15816;SDS011;8009;50.070;8.232;2023-05-10T04:02:24;18.63;;;17.93;;
15816;SDS011;8009;50.070;8.232;2023-05-10T04:14:28;17.27;;;16.57;;
15816;SDS011;8009;50.070;8.232;2023-05-10T04:16:57;20.00;;;19.23;;
15816;SDS011;8009;50.070;8.232;2023-05-10T04:19:28;15.80;;;15.20;;
15816;SDS011;8009;50.070;8.232;2023-05-10T04:21:57;17.47;;;16.80;;
15816;SDS011;8009;50.070;8.232;2023-05-10T04:24:28;15.13;;;14.53;;
15816;SDS011;8009;50.070;8.232;2023-05-10T04:26:56;16.47;;;15.87;;
15816;SDS011;8009;50.070;8.232;2023-05-10T04:29:24;15.20;;;14.60;;
15816;SDS011;8009;50.070;8.232;2023-05-10T04:34:56;14.20;;;13.70;;
15816;SDS011;8009;50.070;8.232;2023-05-10T04:37:24;16.43;;;15.83;;
15816;SDS011;8009;50.070;8.232;2023-05-10T04:49:33;16.10;;;15.50;;
15816;SDS011;8009;50.070;8.232;2023-05-10T04:52:04;16.20;;;15.60;;
15816;SDS011;8009;50.070;8.232;2023-05-10T05:00:41;16.23;;;15.63;;
15816;SDS011;8009;50.070;8.232;2023-05-10T05:03:09;16.47;;;15.87;;
15816;SDS011;8009;50.070;8.232;2023-05-10T05:05:38;14.70;;;14.13;;
15816;SDS011;8009;50.070;8.232;2023-05-10T05:08:06;15.30;;;14.70;;
15816;SDS011;8009;50.070;8.232;2023-05-10T05:10:34;13.10;;;12.60;;
15816;SDS011;8009;50.070;8.232;2023-05-10T05:13:02;16.53;;;15.93;;
15816;SDS011;8009;50.070;8.232;2023-05-10T05:15:31;15.77;;;15.17;;
15816;SDS011;8009;50.070;8.232;2023-05-10T05:18:02;17.73;;;17.03;;
15816;SDS011;8009;50.070;8.232;2023-05-10T05:20:31;15.70;;;15.10;;
15816;SDS011;8009;50.070;8.232;2023-05-10T05:23:00;16.33;;;15.73;;
15816;SDS011;8009;50.070;8.232;2023-05-10T05:25:28;15.17;;;14.57;;
15816;SDS011;8009;50.070;8.232;2023-05-10T05:27:56;16.40;;;15.80;;
15816;SDS011;8009;50.070;8.232;2023-05-10T05:30:25;16.67;;;16.07;;
15816;SDS011;8009;50.070;8.232;2023-05-10T05:32:53;15.67;;;15.07;;
15816;SDS011;8009;50.070;8.232;2023-05-10T05:35:24;16.57;;;15.93;;
15816;SDS011;8009;50.070;8.232;2023-05-10T05:37:52;13.80;;;13.30;;
15816;SDS011;8009;50.070;8.232;2023-05-10T05:40:23;17.13;;;16.50;;
15816;SDS011;8009;50.070;8.232;2023-05-10T05:42:51;17.10;;;16.43;;
15816;SDS011;8009;50.070;8.232;2023-05-10T05:45:22;14.67;;;14.13;;
15816;SDS011;8009;50.070;8.232;2023-05-10T05:47:50;16.13;;;15.53;;
15816;SDS011;8009;50.070;8.232;2023-05-10T05:50:18;17.10;;;16.50;;
15816;SDS011;8009;50.070;8.232;2023-05-10T05:52:49;12.68;;;12.18;;
15816;SDS011;8009;50.070;8.232;2023-05-10T05:55:18;12.90;;;12.40;;
15816;SDS011;8009;50.070;8.232;2023-05-10T05:57:46;14.80;;;14.20;;
15816;SDS011;8009;50.070;8.232;2023-05-10T06:00:15;15.53;;;14.93;;
15816;SDS011;8009;50.070;8.232;2023-05-10T06:02:43;12.80;;;12.30;;
15816;SDS011;8009;50.070;8.232;2023-05-10T06:05:12;14.40;;;13.90;;
15816;SDS011;8009;50.070;8.232;2023-05-10T06:07:40;15.70;;;15.10;;
15816;SDS011;8009;50.070;8.232;2023-05-10T06:10:11;15.47;;;14.87;;
15816;SDS011;8009;50.070;8.232;2023-05-10T06:12:40;16.63;;;16.03;;
15816;SDS011;8009;50.070;8.232;2023-05-10T06:15:09;13.67;;;13.17;;
15816;SDS011;8009;50.070;8.232;2023-05-10T06:17:38;17.40;;;16.70;;
15816;SDS011;8009;50.070;8.232;2023-05-10T06:20:08;16.73;;;16.03;;
15816;SDS011;8009;50.070;8.232;2023-05-10T06:22:37;15.97;;;15.37;;
15816;SDS011;8009;50.070;8.232;2023-05-10T06:25:06;15.50;;;14.90;;
15816;SDS011;8009;50.070;8.232;2023-05-10T06:27:39;14.77;;;14.23;;
15816;SDS011;8009;50.070;8.232;2023-05-10T06:30:09;16.23;;;15.63;;
15816;SDS011;8009;50.070;8.232;2023-05-10T06:32:39;13.87;;;13.37;;
15816;SDS011;8009;50.070;8.232;2023-05-10T06:35:09;13.37;;;12.87;;
15816;SDS011;8009;50.070;8.232;2023-05-10T06:37:37;15.00;;;14.43;;
15816;SDS011;8009;50.070;8.232;2023-05-10T06:40:07;17.43;;;16.73;;
15816;SDS011;8009;50.070;8.232;2023-05-10T06:42:35;14.80;;;14.23;;
15816;SDS011;8009;50.070;8.232;2023-05-10T06:45:07;15.17;;;14.57;;
15816;SDS011;8009;50.070;8.232;2023-05-10T06:47:36;12.53;;;12.03;;
15816;SDS011;8009;50.070;8.232;2023-05-10T06:50:06;15.80;;;15.20;;
15816;SDS011;8009;50.070;8.232;2023-05-10T06:52:35;14.37;;;13.87;;
15816;SDS011;8009;50.070;8.232;2023-05-10T06:55:03;13.37;;;12.87;;
15816;SDS011;8009;50.070;8.232;2023-05-10T06:57:33;13.70;;;13.20;;
15816;SDS011;8009;50.070;8.232;2023-05-10T07:00:04;12.50;;;12.00;;
15816;SDS011;8009;50.070;8.232;2023-05-10T07:02:34;16.47;;;15.83;;
15816;SDS011;8009;50.070;8.232;2023-05-10T07:05:04;12.70;;;12.20;;
15816;SDS011;8009;50.070;8.232;2023-05-10T07:07:33;14.30;;;13.73;;
15816;SDS011;8009;50.070;8.232;2023-05-10T07:10:02;13.40;;;12.90;;
15816;SDS011;8009;50.070;8.232;2023-05-10T07:12:33;12.20;;;11.80;;
15816;SDS011;8009;50.070;8.232;2023-05-10T07:15:05;15.33;;;14.73;;
15816;SDS011;8009;50.070;8.232;2023-05-10T07:17:34;12.03;;;11.63;;
15816;SDS011;8009;50.070;8.232;2023-05-10T07:20:03;11.53;;;11.13;;
15816;SDS011;8009;50.070;8.232;2023-05-10T07:22:32;12.60;;;12.10;;
15816;SDS011;8009;50.070;8.232;2023-05-10T07:25:01;12.50;;;12.00;;
15816;SDS011;8009;50.070;8.232;2023-05-10T07:27:29;12.67;;;12.17;;
15816;SDS011;8009;50.070;8.232;2023-05-10T07:29:57;13.50;;;13.00;;
15816;SDS011;8009;50.070;8.232;2023-05-10T07:32:29;13.80;;;13.30;;
15816;SDS011;8009;50.070;8.232;2023-05-10T07:34:57;13.87;;;13.37;;
15816;SDS011;8009;50.070;8.232;2023-05-10T07:37:26;12.23;;;11.83;;
15816;SDS011;8009;50.070;8.232;2023-05-10T07:39:54;14.97;;;14.37;;
15816;SDS011;8009;50.070;8.232;2023-05-10T07:42:22;15.90;;;15.30;;
15816;SDS011;8009;50.070;8.232;2023-05-10T07:44:51;13.60;;;13.10;;
15816;SDS011;8009;50.070;8.232;2023-05-10T07:47:20;12.77;;;12.27;;
15816;SDS011;8009;50.070;8.232;2023-05-10T07:49:51;11.83;;;11.43;;
15816;SDS011;8009;50.070;8.232;2023-05-10T07:52:19;12.60;;;12.10;;
15816;SDS011;8009;50.070;8.232;2023-05-10T07:54:47;13.47;;;12.97;;
15816;SDS011;8009;50.070;8.232;2023-05-10T07:57:15;14.00;;;13.50;;
15816;SDS011;8009;50.070;8.232;2023-05-10T07:59:45;14.10;;;13.60;;
15816;SDS011;8009;50.070;8.232;2023-05-10T08:02:13;13.60;;;13.10;;
15816;SDS011;8009;50.070;8.232;2023-05-10T08:04:41;18.20;;;17.50;;
15816;SDS011;8009;50.070;8.232;2023-05-10T08:07:13;15.20;;;14.60;;
15816;SDS011;8009;50.070;8.232;2023-05-10T08:09:41;18.83;;;18.13;;
15816;SDS011;8009;50.070;8.232;2023-05-10T08:12:09;17.20;;;16.57;;
15816;SDS011;8009;50.070;8.232;2023-05-10T08:14:38;16.60;;;16.00;;
15816;SDS011;8009;50.070;8.232;2023-05-10T08:17:06;17.23;;;16.60;;
15816;SDS011;8009;50.070;8.232;2023-05-10T08:19:38;41.77;;;39.23;;
15816;SDS011;8009;50.070;8.232;2023-05-10T08:22:07;30.83;;;29.47;;
15816;SDS011;8009;50.070;8.232;2023-05-10T08:24:38;17.33;;;16.70;;
15816;SDS011;8009;50.070;8.232;2023-05-10T08:27:07;17.30;;;16.60;;
15816;SDS011;8009;50.070;8.232;2023-05-10T08:29:36;14.90;;;14.40;;
15816;SDS011;8009;50.070;8.232;2023-05-10T08:32:05;16.90;;;16.27;;
15816;SDS011;8009;50.070;8.232;2023-05-10T08:34:33;26.13;;;24.97;;
15816;SDS011;8009;50.070;8.232;2023-05-10T08:37:03;34.33;;;32.73;;
15816;SDS011;8009;50.070;8.232;2023-05-10T08:39:33;14.00;;;13.50;;
15816;SDS011;8009;50.070;8.232;2023-05-10T08:42:05;13.20;;;12.70;;
15816;SDS011;8009;50.070;8.232;2023-05-10T08:44:35;15.90;;;15.30;;
15816;SDS011;8009;50.070;8.232;2023-05-10T08:47:05;17.40;;;16.73;;
15816;SDS011;8009;50.070;8.232;2023-05-10T08:49:34;12.87;;;12.37;;
15816;SDS011;8009;50.070;8.232;2023-05-10T08:52:04;16.20;;;15.60;;
15816;SDS011;8009;50.070;8.232;2023-05-10T08:54:34;14.47;;;13.97;;
15816;SDS011;8009;50.070;8.232;2023-05-10T08:57:06;15.10;;;14.50;;
15816;SDS011;8009;50.070;8.232;2023-05-10T08:59:35;13.83;;;13.33;;
15816;SDS011;8009;50.070;8.232;2023-05-10T09:02:04;14.37;;;13.87;;
15816;SDS011;8009;50.070;8.232;2023-05-10T09:04:33;18.80;;;18.10;;
15816;SDS011;8009;50.070;8.232;2023-05-10T09:07:01;15.10;;;14.50;;
15816;SDS011;8009;50.070;8.232;2023-05-10T09:09:30;15.60;;;15.00;;
15816;SDS011;8009;50.070;8.232;2023-05-10T09:11:59;19.17;;;18.37;;
15816;SDS011;8009;50.070;8.232;2023-05-10T09:14:30;15.00;;;14.40;;
15816;SDS011;8009;50.070;8.232;2023-05-10T09:17:01;14.80;;;14.20;;
15816;SDS011;8009;50.070;8.232;2023-05-10T09:19:29;15.07;;;14.47;;
15816;SDS011;8009;50.070;8.232;2023-05-10T09:21:57;15.37;;;14.77;;
15816;SDS011;8009;50.070;8.232;2023-05-10T09:24:28;13.17;;;12.67;;
15816;SDS011;8009;50.070;8.232;2023-05-10T09:26:58;14.40;;;13.90;;
15816;SDS011;8009;50.070;8.232;2023-05-10T09:29:26;14.30;;;13.80;;
15816;SDS011;8009;50.070;8.232;2023-05-10T09:32:08;14.87;;;14.27;;
15816;SDS011;8009;50.070;8.232;2023-05-10T09:34:37;14.23;;;13.73;;
15816;SDS011;8009;50.070;8.232;2023-05-10T09:37:06;12.20;;;11.80;;
15816;SDS011;8009;50.070;8.232;2023-05-10T09:39:35;10.77;;;10.37;;
15816;SDS011;8009;50.070;8.232;2023-05-10T09:42:04;11.50;;;11.10;;
15816;SDS011;8009;50.070;8.232;2023-05-10T09:44:34;11.40;;;11.00;;
15816;SDS011;8009;50.070;8.232;2023-05-10T09:47:03;12.07;;;11.67;;
15816;SDS011;8009;50.070;8.232;2023-05-10T09:49:34;11.70;;;11.30;;
15816;SDS011;8009;50.070;8.232;2023-05-10T09:52:03;13.90;;;13.40;;
15816;SDS011;8009;50.070;8.232;2023-05-10T09:54:33;12.57;;;12.07;;
15816;SDS011;8009;50.070;8.232;2023-05-10T09:57:02;11.67;;;11.27;;
15816;SDS011;8009;50.070;8.232;2023-05-10T09:59:32;13.13;;;12.63;;
15816;SDS011;8009;50.070;8.232;2023-05-10T10:02:01;14.47;;;13.97;;
15816;SDS011;8009;50.070;8.232;2023-05-10T10:04:30;15.50;;;14.90;;
15816;SDS011;8009;50.070;8.232;2023-05-10T10:07:01;13.13;;;12.63;;
15816;SDS011;8009;50.070;8.232;2023-05-10T10:09:31;15.63;;;15.03;;
15816;SDS011;8009;50.070;8.232;2023-05-10T10:12:00;14.67;;;14.07;;
15816;SDS011;8009;50.070;8.232;2023-05-10T10:14:35;14.07;;;13.57;;
15816;SDS011;8009;50.070;8.232;2023-05-10T10:17:04;11.37;;;10.97;;
15816;SDS011;8009;50.070;8.232;2023-05-10T10:19:33;10.77;;;10.37;;
15816;SDS011;8009;50.070;8.232;2023-05-10T10:22:04;12.70;;;12.20;;
15816;SDS011;8009;50.070;8.232;2023-05-10T10:24:34;13.10;;;12.60;;
15816;SDS011;8009;50.070;8.232;2023-05-10T10:27:04;11.57;;;11.17;;
15816;SDS011;8009;50.070;8.232;2023-05-10T10:29:44;11.98;;;11.48;;
15816;SDS011;8009;50.070;8.232;2023-05-10T10:32:22;11.80;;;11.30;;
15816;SDS011;8009;50.070;8.232;2023-05-10T10:34:55;11.90;;;11.50;;
15816;SDS011;8009;50.070;8.232;2023-05-10T10:37:28;11.20;;;10.80;;
15816;SDS011;8009;50.070;8.232;2023-05-10T10:40:23;10.07;;;9.67;;
15816;SDS011;8009;50.070;8.232;2023-05-10T10:42:53;13.40;;;12.90;;
15816;SDS011;8009;50.070;8.232;2023-05-10T10:45:22;12.83;;;12.33;;
15816;SDS011;8009;50.070;8.232;2023-05-10T10:50:55;12.37;;;11.90;;
15816;SDS011;8009;50.070;8.232;2023-05-10T10:53:28;11.93;;;11.53;;
15816;SDS011;8009;50.070;8.232;2023-05-10T10:56:04;10.73;;;10.33;;
15816;SDS011;8009;50.070;8.232;2023-05-10T10:58:35;12.77;;;12.30;;
15816;SDS011;8009;50.070;8.232;2023-05-10T11:01:12;25.13;;;24.17;;
15816;SDS011;8009;50.070;8.232;2023-05-10T11:03:54;32.30;;;31.03;;
15816;SDS011;8009;50.070;8.232;2023-05-10T11:06:43;28.60;;;27.50;;
15816;SDS011;8009;50.070;8.232;2023-05-10T11:09:16;32.97;;;31.67;;
15816;SDS011;8009;50.070;8.232;2023-05-10T11:11:49;34.73;;;33.37;;
15816;SDS011;8009;50.070;8.232;2023-05-10T11:14:21;37.27;;;35.80;;
15816;SDS011;8009;50.070;8.232;2023-05-10T11:16:50;20.37;;;19.57;;
15816;SDS011;8009;50.070;8.232;2023-05-10T11:19:22;19.97;;;19.20;;
15816;SDS011;8009;50.070;8.232;2023-05-10T11:25:09;24.73;;;23.80;;
15816;SDS011;8009;50.070;8.232;2023-05-10T11:27:41;16.40;;;15.80;;
15816;SDS011;8009;50.070;8.232;2023-05-10T11:30:12;17.30;;;16.67;;
15816;SDS011;8009;50.070;8.232;2023-05-10T11:32:41;16.10;;;15.50;;
15816;SDS011;8009;50.070;8.232;2023-05-10T11:35:11;11.67;;;11.27;;
15816;SDS011;8009;50.070;8.232;2023-05-10T11:37:40;12.10;;;11.70;;
15816;SDS011;8009;50.070;8.232;2023-05-10T11:40:13;12.30;;;11.87;;
15816;SDS011;8009;50.070;8.232;2023-05-10T11:42:41;11.50;;;11.10;;
15816;SDS011;8009;50.070;8.232;2023-05-10T11:45:11;14.67;;;14.10;;
15816;SDS011;8009;50.070;8.232;2023-05-10T11:47:39;17.27;;;16.63;;
15816;SDS011;8009;50.070;8.232;2023-05-10T11:50:11;46.57;;;44.70;;
15816;SDS011;8009;50.070;8.232;2023-05-10T11:52:39;41.27;;;39.63;;
15816;SDS011;8009;50.070;8.232;2023-05-10T11:58:03;21.13;;;20.33;;
15816;SDS011;8009;50.070;8.232;2023-05-10T12:00:32;14.30;;;13.80;;
15816;SDS011;8009;50.070;8.232;2023-05-10T12:03:00;13.83;;;13.33;;
15816;SDS011;8009;50.070;8.232;2023-05-10T12:05:31;12.67;;;12.17;;
15816;SDS011;8009;50.070;8.232;2023-05-10T12:08:13;13.17;;;12.67;;
15816;SDS011;8009;50.070;8.232;2023-05-10T12:10:44;13.30;;;12.80;;
15816;SDS011;8009;50.070;8.232;2023-05-10T12:13:13;12.03;;;11.63;;
15816;SDS011;8009;50.070;8.232;2023-05-10T12:15:42;12.90;;;12.40;;
15816;SDS011;8009;50.070;8.232;2023-05-10T12:18:11;15.17;;;14.57;;
15816;SDS011;8009;50.070;8.232;2023-05-10T12:20:40;13.77;;;13.27;;
15816;SDS011;8009;50.070;8.232;2023-05-10T12:23:09;15.30;;;14.70;;
15816;SDS011;8009;50.070;8.232;2023-05-10T12:25:41;14.60;;;14.10;;
15816;SDS011;8009;50.070;8.232;2023-05-10T12:28:11;14.23;;;13.67;;
15816;SDS011;8009;50.070;8.232;2023-05-10T12:30:40;14.77;;;14.27;;
15816;SDS011;8009;50.070;8.232;2023-05-10T12:33:09;24.37;;;23.47;;
15816;SDS011;8009;50.070;8.232;2023-05-10T12:35:46;20.37;;;19.60;;
15816;SDS011;8009;50.070;8.232;2023-05-10T12:38:24;13.43;;;12.93;;
15816;SDS011;8009;50.070;8.232;2023-05-10T12:40:57;16.77;;;16.17;;
15816;SDS011;8009;50.070;8.232;2023-05-10T12:43:26;12.80;;;12.30;;
15816;SDS011;8009;50.070;8.232;2023-05-10T12:45:54;13.03;;;12.53;;
15816;SDS011;8009;50.070;8.232;2023-05-10T12:48:26;13.20;;;12.70;;
15816;SDS011;8009;50.070;8.232;2023-05-10T12:50:56;13.97;;;13.47;;
15816;SDS011;8009;50.070;8.232;2023-05-10T12:53:24;12.80;;;12.30;;
15816;SDS011;8009;50.070;8.232;2023-05-10T12:55:52;13.47;;;12.97;;
15816;SDS011;8009;50.070;8.232;2023-05-10T12:58:26;11.30;;;10.90;;
15816;SDS011;8009;50.070;8.232;2023-05-10T13:00:55;16.97;;;16.33;;
15816;SDS011;8009;50.070;8.232;2023-05-10T13:03:23;13.67;;;13.17;;
15816;SDS011;8009;50.070;8.232;2023-05-10T13:05:52;15.30;;;14.70;;
15816;SDS011;8009;50.070;8.232;2023-05-10T13:08:20;11.47;;;11.07;;
15816;SDS011;8009;50.070;8.232;2023-05-10T13:10:48;14.02;;;13.52;;
15816;SDS011;8009;50.070;8.232;2023-05-10T13:13:17;15.10;;;14.50;;
15816;SDS011;8009;50.070;8.232;2023-05-10T13:15:48;14.17;;;13.67;;
15816;SDS011;8009;50.070;8.232;2023-05-10T13:18:16;11.63;;;11.23;;
15816;SDS011;8009;50.070;8.232;2023-05-10T13:20:44;13.57;;;13.07;;
15816;SDS011;8009;50.070;8.232;2023-05-10T13:23:14;12.23;;;11.73;;
15816;SDS011;8009;50.070;8.232;2023-05-10T13:25:42;12.03;;;11.63;;
15816;SDS011;8009;50.070;8.232;2023-05-10T13:28:11;12.43;;;11.97;;
15816;SDS011;8009;50.070;8.232;2023-05-10T13:30:39;12.63;;;12.13;;
15816;SDS011;8009;50.070;8.232;2023-05-10T13:33:10;12.60;;;12.10;;
15816;SDS011;8009;50.070;8.232;2023-05-10T13:35:38;10.53;;;10.13;;
15816;SDS011;8009;50.070;8.232;2023-05-10T13:38:07;10.30;;;9.90;;
15816;SDS011;8009;50.070;8.232;2023-05-10T13:40:35;10.77;;;10.37;;
15816;SDS011;8009;50.070;8.232;2023-05-10T13:43:03;10.13;;;9.73;;
15816;SDS011;8009;50.070;8.232;2023-05-10T13:45:32;12.33;;;11.90;;
15816;SDS011;8009;50.070;8.232;2023-05-10T13:48:00;11.33;;;10.93;;
15816;SDS011;8009;50.070;8.232;2023-05-10T13:50:31;13.23;;;12.73;;
15816;SDS011;8009;50.070;8.232;2023-05-10T13:52:59;13.83;;;13.33;;
15816;SDS011;8009;50.070;8.232;2023-05-10T13:55:28;12.40;;;11.93;;
15816;SDS011;8009;50.070;8.232;2023-05-10T13:57:56;11.80;;;11.40;;
15816;SDS011;8009;50.070;8.232;2023-05-10T14:00:25;11.77;;;11.33;;
15816;SDS011;8009;50.070;8.232;2023-05-10T14:10:41;11.70;;;11.30;;
15816;SDS011;8009;50.070;8.232;2023-05-10T14:13:09;12.37;;;11.87;;
15816;SDS011;8009;50.070;8.232;2023-05-10T14:15:38;13.10;;;12.60;;
15816;SDS011;8009;50.070;8.232;2023-05-10T14:18:06;13.10;;;12.60;;
15816;SDS011;8009;50.070;8.232;2023-05-10T14:20:34;12.95;;;12.45;;
15816;SDS011;8009;50.070;8.232;2023-05-10T14:23:03;12.23;;;11.80;;
15816;SDS011;8009;50.070;8.232;2023-05-10T14:25:31;12.83;;;12.33;;
15816;SDS011;8009;50.070;8.232;2023-05-10T14:28:02;20.13;;;19.37;;
15816;SDS011;8009;50.070;8.232;2023-05-10T14:30:30;29.97;;;28.77;;
15816;SDS011;8009;50.070;8.232;2023-05-10T14:32:59;25.07;;;24.10;;
15816;SDS011;8009;50.070;8.232;2023-05-10T14:35:28;27.00;;;25.97;;
15816;SDS011;8009;50.070;8.232;2023-05-10T14:37:57;26.97;;;25.93;;
15816;SDS011;8009;50.070;8.232;2023-05-10T14:40:25;24.57;;;23.63;;
15816;SDS011;8009;50.070;8.232;2023-05-10T14:42:53;25.40;;;24.40;;
15816;SDS011;8009;50.070;8.232;2023-05-10T14:45:24;23.33;;;22.43;;
15816;SDS011;8009;50.070;8.232;2023-05-10T14:47:53;23.13;;;22.23;;
15816;SDS011;8009;50.070;8.232;2023-05-10T14:50:21;26.43;;;25.43;;
15816;SDS011;8009;50.070;8.232;2023-05-10T14:52:49;27.23;;;26.20;;
15816;SDS011;8009;50.070;8.232;2023-05-10T14:55:17;24.07;;;23.17;;
15816;SDS011;8009;50.070;8.232;2023-05-10T15:00:24;26.40;;;25.30;;
15816;SDS011;8009;50.070;8.232;2023-05-10T15:07:57;25.37;;;24.37;;
15816;SDS011;8009;50.070;8.232;2023-05-10T15:10:26;26.20;;;25.20;;
15816;SDS011;8009;50.070;8.232;2023-05-10T15:12:57;27.10;;;26.10;;
15816;SDS011;8009;50.070;8.232;2023-05-10T15:15:29;25.17;;;24.17;;
15816;SDS011;8009;50.070;8.232;2023-05-10T15:17:57;27.23;;;26.17;;
15816;SDS011;8009;50.070;8.232;2023-05-10T15:20:25;22.10;;;21.23;;
15816;SDS011;8009;50.070;8.232;2023-05-10T15:22:54;18.97;;;18.27;;
15816;SDS011;8009;50.070;8.232;2023-05-10T15:25:22;15.23;;;14.63;;
15816;SDS011;8009;50.070;8.232;2023-05-10T15:27:51;12.17;;;11.77;;
15816;SDS011;8009;50.070;8.232;2023-05-10T15:30:19;12.60;;;12.10;;
15816;SDS011;8009;50.070;8.232;2023-05-10T15:32:50;13.90;;;13.40;;
15816;SDS011;8009;50.070;8.232;2023-05-10T15:35:18;15.50;;;14.90;;
15816;SDS011;8009;50.070;8.232;2023-05-10T15:37:47;13.47;;;12.97;;
15816;SDS011;8009;50.070;8.232;2023-05-10T15:40:16;16.13;;;15.53;;
15816;SDS011;8009;50.070;8.232;2023-05-10T15:42:44;25.87;;;24.87;;
15816;SDS011;8009;50.070;8.232;2023-05-10T15:45:13;22.67;;;21.77;;
15816;SDS011;8009;50.070;8.232;2023-05-10T15:47:42;27.93;;;26.83;;
15816;SDS011;8009;50.070;8.232;2023-05-10T15:50:14;28.40;;;27.30;;
15816;SDS011;8009;50.070;8.232;2023-05-10T15:52:42;25.87;;;24.87;;
15816;SDS011;8009;50.070;8.232;2023-05-10T15:55:11;25.83;;;24.83;;
15816;SDS011;8009;50.070;8.232;2023-05-10T15:57:40;27.33;;;26.23;;
15816;SDS011;8009;50.070;8.232;2023-05-10T16:00:10;24.83;;;23.83;;
15816;SDS011;8009;50.070;8.232;2023-05-10T16:02:41;13.93;;;13.43;;